createdAt,value
2022-09-22T00:01:30.389Z,11.57
2022-09-22T00:04:01.474Z,11.53
2022-09-22T00:06:32.928Z,11.41
2022-09-22T00:09:01.998Z,11.44
2022-09-22T00:11:39.023Z,11.37
2022-09-22T00:14:27.643Z,11.31
2022-09-22T00:16:58.912Z,11.37
2022-09-22T00:19:37.612Z,11.18
2022-09-22T00:22:05.783Z,11.22
2022-09-22T00:24:33.562Z,11.25
2022-09-22T00:27:00.579Z,11.19
2022-09-22T00:29:29.637Z,11.04
2022-09-22T00:31:57.258Z,11.12
2022-09-22T00:34:26.927Z,11.15
2022-09-22T00:36:54.882Z,11.16
2022-09-22T00:39:21.889Z,11.14
2022-09-22T00:41:51.779Z,11.13
2022-09-22T00:44:21.370Z,11.08
2022-09-22T00:47:01.217Z,11.07
2022-09-22T00:50:17.346Z,11.14
2022-09-22T00:52:53.924Z,11.08
2022-09-22T00:55:33.060Z,10.95
2022-09-22T00:58:01.657Z,10.93
2022-09-22T01:00:29.049Z,10.57
2022-09-22T01:03:00.027Z,10.69
2022-09-22T01:05:28.347Z,10.67
2022-09-22T01:07:55.545Z,10.70
2022-09-22T01:10:23.852Z,10.67
2022-09-22T01:13:21.444Z,10.72
2022-09-22T01:16:26.358Z,10.65
2022-09-22T01:19:08.019Z,10.66
2022-09-22T01:22:04.698Z,10.59
2022-09-22T01:24:46.548Z,10.62
2022-09-22T01:27:53.795Z,10.63
2022-09-22T01:30:44.100Z,10.61
2022-09-22T01:33:22.557Z,10.55
2022-09-22T01:35:55.026Z,10.51
2022-09-22T01:38:33.229Z,10.60
2022-09-22T01:41:17.503Z,10.53
2022-09-22T01:44:00.161Z,10.59
2022-09-22T01:46:31.127Z,10.63
2022-09-22T01:49:06.316Z,10.61
2022-09-22T01:51:51.355Z,10.52
2022-09-22T01:54:32.190Z,10.53
2022-09-22T01:57:14.308Z,10.47
2022-09-22T01:59:44.664Z,10.45
2022-09-22T02:02:45.202Z,10.49
2022-09-22T02:05:32.134Z,10.48
2022-09-22T02:08:02.609Z,10.37
2022-09-22T02:10:37.056Z,10.38
2022-09-22T02:13:04.046Z,10.38
2022-09-22T02:15:49.763Z,10.46
2022-09-22T02:18:32.334Z,10.40
2022-09-22T02:20:59.520Z,10.44
2022-09-22T02:23:27.228Z,10.40
2022-09-22T02:25:55.634Z,10.40
2022-09-22T02:28:24.333Z,10.39
2022-09-22T02:31:18.495Z,10.17
2022-09-22T02:33:42.180Z,10.19
2022-09-22T02:36:54.801Z,10.29
2022-09-22T02:39:38.693Z,10.21
2022-09-22T02:42:35.214Z,10.06
2022-09-22T02:45:25.652Z,10.02
2022-09-22T02:48:23.841Z,10.01
2022-09-22T02:50:51.971Z,10.08
2022-09-22T02:53:18.905Z,10.07
2022-09-22T02:55:47.282Z,10.09
2022-09-22T02:58:16.560Z,9.91
2022-09-22T03:00:45.218Z,9.99
2022-09-22T03:03:12.671Z,9.95
2022-09-22T03:05:40.048Z,9.96
2022-09-22T03:08:07.649Z,10.00
2022-09-22T03:10:34.792Z,10.02
2022-09-22T03:13:17.674Z,10.08
2022-09-22T03:15:46.860Z,10.02
2022-09-22T03:18:14.635Z,9.99
2022-09-22T03:20:41.580Z,10.00
2022-09-22T03:23:09.176Z,10.01
2022-09-22T03:25:36.264Z,10.04
2022-09-22T03:28:03.343Z,9.98
2022-09-22T03:30:30.274Z,10.01
2022-09-22T03:32:58.195Z,10.02
2022-09-22T03:35:25.065Z,9.92
2022-09-22T03:37:51.955Z,9.91
2022-09-22T03:40:18.957Z,9.80
2022-09-22T03:42:48.453Z,9.80
2022-09-22T03:45:19.189Z,9.72
2022-09-22T03:47:50.898Z,9.64
2022-09-22T03:50:23.154Z,9.64
2022-09-22T03:52:53.023Z,9.55
2022-09-22T03:55:19.923Z,9.59
2022-09-22T03:57:46.947Z,9.72
2022-09-22T04:00:17.072Z,9.72
2022-09-22T04:02:44.197Z,9.75
2022-09-22T04:05:11.452Z,9.70
2022-09-22T04:07:43.147Z,9.71
2022-09-22T04:10:13.365Z,9.63
2022-09-22T04:12:40.158Z,9.64
2022-09-22T04:15:08.179Z,9.61
2022-09-22T04:17:35.440Z,9.43
2022-09-22T04:20:07.865Z,9.47
2022-09-22T04:22:34.888Z,9.42
2022-09-22T04:25:01.714Z,9.50
2022-09-22T04:27:28.646Z,9.43
2022-09-22T04:29:55.492Z,9.36
2022-09-22T04:32:22.356Z,9.47
2022-09-22T04:34:49.335Z,9.32
2022-09-22T04:37:16.134Z,9.30
2022-09-22T04:39:42.953Z,9.28
2022-09-22T04:42:09.861Z,9.42
2022-09-22T04:44:36.857Z,9.35
2022-09-22T04:47:04.710Z,9.39
2022-09-22T04:49:31.720Z,9.33
2022-09-22T04:51:58.983Z,9.36
2022-09-22T04:54:25.762Z,9.37
2022-09-22T04:56:52.580Z,9.42
2022-09-22T04:59:19.408Z,9.28
2022-09-22T05:01:46.277Z,9.30
2022-09-22T05:04:13.124Z,9.32
2022-09-22T05:06:41.658Z,9.33
2022-09-22T05:09:08.452Z,9.34
2022-09-22T05:11:35.301Z,9.33
2022-09-22T05:14:02.588Z,9.38
2022-09-22T05:16:31.182Z,9.46
2022-09-22T05:18:58.363Z,9.48
2022-09-22T05:21:25.268Z,9.50
2022-09-22T05:23:52.186Z,9.56
2022-09-22T05:26:19.282Z,9.51
2022-09-22T05:28:46.124Z,9.56
2022-09-22T05:31:12.902Z,9.67
2022-09-22T05:33:39.762Z,9.73
2022-09-22T05:36:06.687Z,10.35
2022-09-22T05:38:33.503Z,10.92
2022-09-22T05:41:01.266Z,11.52
2022-09-22T05:43:28.057Z,12.04
2022-09-22T05:45:54.984Z,12.59
2022-09-22T05:48:21.796Z,12.89
2022-09-22T05:50:48.929Z,13.24
2022-09-22T05:53:16.881Z,13.71
2022-09-22T05:55:43.679Z,14.01
2022-09-22T05:58:14.502Z,14.31
2022-09-22T06:00:42.107Z,14.69
2022-09-22T06:03:09.164Z,15.56
2022-09-22T06:05:39.127Z,16.56
2022-09-22T06:08:06.904Z,17.45
2022-09-22T06:10:37.494Z,18.32
2022-09-22T06:13:07.431Z,18.92
2022-09-22T06:15:36.023Z,19.61
2022-09-22T06:18:14.617Z,20.00
2022-09-22T06:20:43.015Z,20.94
2022-09-22T06:23:10.798Z,21.86
2022-09-22T06:25:37.636Z,22.29
2022-09-22T06:28:08.051Z,22.88
2022-09-22T06:30:40.013Z,22.92
2022-09-22T06:33:11.298Z,23.66
2022-09-22T06:35:42.830Z,23.87
2022-09-22T06:38:13.784Z,24.13
2022-09-22T06:40:42.334Z,24.60
2022-09-22T06:43:19.879Z,25.05
2022-09-22T06:45:46.940Z,25.42
2022-09-22T06:48:13.826Z,25.79
2022-09-22T06:50:40.969Z,26.01
2022-09-22T06:53:13.805Z,26.17
2022-09-22T06:55:43.927Z,26.38
2022-09-22T06:58:11.909Z,26.48
2022-09-22T07:00:41.870Z,26.76
2022-09-22T07:03:25.430Z,26.99
2022-09-22T07:05:58.168Z,27.10
2022-09-22T07:08:25.674Z,27.37
2022-09-22T07:11:04.255Z,27.58
2022-09-22T07:13:32.430Z,27.59
2022-09-22T07:16:01.366Z,27.66
2022-09-22T07:18:29.869Z,27.68
2022-09-22T07:21:14.768Z,27.92
2022-09-22T07:23:44.148Z,27.83
2022-09-22T07:26:15.796Z,27.88
2022-09-22T07:28:42.902Z,28.23
2022-09-22T07:31:15.176Z,28.38
2022-09-22T07:33:44.699Z,28.54
2022-09-22T07:36:19.200Z,28.91
2022-09-22T07:38:52.127Z,29.31
2022-09-22T07:41:22.053Z,29.19
2022-09-22T07:43:56.179Z,29.64
2022-09-22T07:46:24.094Z,29.68
2022-09-22T07:48:51.438Z,29.64
2022-09-22T07:51:25.613Z,30.03
2022-09-22T07:54:07.859Z,30.33
2022-09-22T07:56:37.122Z,30.99
2022-09-22T07:59:09.791Z,31.23
2022-09-22T08:01:44.947Z,30.91
2022-09-22T08:04:16.582Z,32.02
2022-09-22T08:06:45.874Z,32.72
2022-09-22T08:09:14.075Z,33.22
2022-09-22T08:11:48.520Z,33.37
2022-09-22T08:14:17.279Z,34.14
2022-09-22T08:16:45.760Z,34.12
2022-09-22T08:19:14.420Z,34.85
2022-09-22T08:21:49.186Z,35.68
2022-09-22T08:24:23.190Z,36.91
2022-09-22T08:26:52.822Z,38.08
2022-09-22T08:29:20.767Z,39.22
2022-09-22T08:31:49.191Z,40.29
2022-09-22T08:34:16.904Z,41.70
2022-09-22T08:36:48.657Z,41.78
2022-09-22T08:39:17.441Z,42.13
2022-09-22T08:42:12.172Z,42.72
2022-09-22T08:45:16.884Z,43.34
2022-09-22T08:48:12.296Z,44.39
2022-09-22T08:51:17.088Z,45.21
2022-09-22T08:53:49.625Z,45.69
2022-09-22T08:56:41.655Z,46.39
2022-09-22T08:59:24.268Z,47.10
2022-09-22T09:02:15.776Z,46.82
2022-09-22T09:05:19.408Z,47.03
2022-09-22T09:08:19.738Z,47.50
2022-09-22T09:10:59.463Z,47.96
2022-09-22T09:13:56.602Z,48.22
2022-09-22T09:16:44.261Z,48.42
2022-09-22T09:20:05.716Z,48.36
2022-09-22T09:22:43.774Z,48.61
2022-09-22T09:25:27.855Z,48.23
2022-09-22T09:28:06.700Z,48.19
2022-09-22T09:30:43.309Z,49.48
2022-09-22T09:33:20.758Z,49.87
2022-09-22T09:35:53.553Z,49.86
2022-09-22T09:38:39.767Z,50.18
2022-09-22T09:41:25.250Z,50.27
2022-09-22T09:43:54.376Z,49.11
2022-09-22T09:46:26.864Z,49.10
2022-09-22T09:49:11.048Z,49.17
2022-09-22T09:51:43.044Z,49.87
2022-09-22T09:54:17.135Z,49.61
2022-09-22T09:57:11.377Z,49.87
2022-09-22T10:00:08.058Z,50.47
2022-09-22T10:02:48.266Z,50.04
2022-09-22T10:05:17.938Z,49.35
2022-09-22T10:08:15.421Z,49.64
2022-09-22T10:10:42.949Z,49.34
2022-09-22T10:13:09.817Z,49.28
2022-09-22T10:15:40.358Z,49.08
2022-09-22T10:18:40.108Z,48.93
2022-09-22T10:21:16.843Z,48.02
2022-09-22T10:23:55.447Z,47.60
2022-09-22T10:26:30.490Z,45.33
2022-09-22T10:29:20.997Z,41.58
2022-09-22T10:32:15.872Z,38.38
2022-09-22T10:34:51.395Z,35.57
2022-09-22T10:37:25.520Z,32.28
2022-09-22T10:40:03.652Z,29.30
2022-09-22T10:42:43.888Z,27.10
2022-09-22T10:45:19.574Z,25.87
2022-09-22T10:47:59.213Z,23.47
2022-09-22T10:51:05.310Z,22.81
2022-09-22T10:54:26.811Z,21.64
2022-09-22T10:56:57.470Z,21.03
2022-09-22T10:59:32.903Z,20.85
2022-09-22T11:02:34.922Z,20.65
2022-09-22T11:06:08.035Z,20.85
2022-09-22T11:09:24.633Z,20.85
2022-09-22T11:12:40.673Z,20.71
2022-09-22T11:15:56.400Z,20.66
2022-09-22T11:19:13.100Z,20.79
2022-09-22T11:22:12.212Z,20.57
2022-09-22T11:25:26.344Z,20.33
2022-09-22T11:28:23.717Z,20.16
2022-09-22T11:30:52.800Z,20.29
2022-09-22T11:34:23.713Z,20.27
2022-09-22T11:37:27.765Z,20.18
2022-09-22T11:40:29.648Z,19.90
2022-09-22T11:43:18.552Z,19.77
2022-09-22T11:46:13.936Z,19.68
2022-09-22T11:49:05.726Z,19.49
2022-09-22T11:51:41.298Z,19.42
2022-09-22T11:54:26.487Z,19.43
2022-09-22T11:56:59.317Z,19.52
2022-09-22T11:59:42.569Z,19.59
2022-09-22T12:02:40.037Z,19.52
2022-09-22T12:05:21.372Z,19.30
2022-09-22T12:08:10.252Z,19.23
2022-09-22T12:10:41.304Z,19.34
2022-09-22T12:13:22.510Z,19.15
2022-09-22T12:16:09.652Z,19.33
2022-09-22T12:18:51.361Z,19.32
2022-09-22T12:21:57.079Z,19.33
2022-09-22T12:24:24.776Z,19.21
2022-09-22T12:26:51.740Z,19.16
2022-09-22T12:29:28.426Z,19.39
2022-09-22T12:31:58.936Z,19.37
2022-09-22T12:34:41.071Z,19.26
2022-09-22T12:37:30.822Z,19.27
2022-09-22T12:40:18.679Z,19.34
2022-09-22T12:42:51.167Z,19.31
2022-09-22T12:45:36.698Z,19.41
2022-09-22T12:48:18.380Z,19.44
2022-09-22T12:50:46.063Z,19.56
2022-09-22T12:53:21.906Z,19.63
2022-09-22T12:55:56.672Z,19.48
2022-09-22T12:58:26.005Z,19.61
2022-09-22T13:01:27.803Z,19.61
2022-09-22T13:04:11.782Z,19.49
2022-09-22T13:06:38.478Z,19.37
2022-09-22T13:09:05.242Z,19.37
2022-09-22T13:12:12.464Z,19.48
2022-09-22T13:15:00.691Z,19.49
2022-09-22T13:17:45.865Z,19.47
2022-09-22T13:20:17.402Z,19.36
2022-09-22T13:22:44.560Z,19.51
2022-09-22T13:25:38.522Z,19.44
2022-09-22T13:28:08.272Z,19.41
2022-09-22T13:30:37.525Z,19.65
2022-09-22T13:33:04.427Z,19.62
2022-09-22T13:35:37.716Z,19.62
2022-09-22T13:38:05.430Z,19.61
2022-09-22T13:40:34.669Z,19.59
2022-09-22T13:43:08.815Z,19.66
2022-09-22T13:45:39.010Z,19.67
2022-09-22T13:48:10.392Z,19.52
2022-09-22T13:51:01.402Z,19.56
2022-09-22T13:56:18.054Z,19.56
2022-09-22T13:58:50.724Z,19.52
2022-09-22T14:01:22.549Z,19.47
2022-09-22T14:03:51.222Z,19.43
2022-09-22T14:06:25.893Z,19.47
2022-09-22T14:08:54.029Z,19.31
2022-09-22T14:11:39.187Z,19.48
2022-09-22T14:14:07.615Z,19.61
2022-09-22T14:16:49.810Z,19.62
2022-09-22T14:19:45.645Z,19.55
2022-09-22T14:22:25.760Z,19.61
2022-09-22T14:24:57.736Z,19.51
2022-09-22T14:27:34.226Z,19.68
2022-09-22T14:30:01.797Z,19.72
2022-09-22T14:32:39.750Z,19.70
2022-09-22T14:35:23.375Z,19.72
2022-09-22T14:37:51.557Z,19.70
2022-09-22T14:40:24.421Z,19.63
2022-09-22T14:43:23.867Z,19.69
2022-09-22T14:46:08.643Z,19.59
2022-09-22T14:48:36.583Z,19.61
2022-09-22T14:51:12.022Z,19.58
2022-09-22T14:53:50.611Z,19.47
2022-09-22T14:56:28.207Z,19.52
2022-09-22T14:58:58.756Z,19.36
2022-09-22T15:01:51.082Z,19.46
2022-09-22T15:04:24.896Z,19.45
2022-09-22T15:06:58.825Z,19.53
2022-09-22T15:09:42.807Z,19.47
2022-09-22T15:12:46.236Z,19.43
2022-09-22T15:15:27.567Z,19.62
2022-09-22T15:18:19.321Z,19.61
2022-09-22T15:21:11.323Z,19.57
2022-09-22T15:23:41.874Z,19.59
2022-09-22T15:26:24.920Z,19.64
2022-09-22T15:28:55.223Z,19.70
2022-09-22T15:31:26.729Z,19.72
2022-09-22T15:34:02.946Z,19.68
2022-09-22T15:36:32.778Z,19.66
2022-09-22T15:39:06.986Z,19.55
2022-09-22T15:41:34.885Z,19.59
2022-09-22T15:44:03.175Z,19.37
2022-09-22T15:46:38.033Z,19.51
2022-09-22T15:49:18.045Z,19.33
2022-09-22T15:51:44.950Z,19.36
2022-09-22T15:54:21.316Z,19.38
2022-09-22T15:56:52.381Z,19.48
2022-09-22T15:59:24.478Z,19.51
2022-09-22T16:01:55.853Z,19.46
2022-09-22T16:04:23.599Z,19.47
2022-09-22T16:06:55.759Z,19.50
2022-09-22T16:09:22.772Z,19.33
2022-09-22T16:11:49.692Z,19.28
2022-09-22T16:14:16.600Z,19.29
2022-09-22T16:16:43.544Z,19.35
2022-09-22T16:19:10.538Z,19.34
2022-09-22T16:21:40.538Z,19.30
2022-09-22T16:24:10.815Z,19.21
2022-09-22T16:26:39.811Z,19.26
2022-09-22T16:29:07.586Z,19.26
2022-09-22T16:31:36.045Z,19.22
2022-09-22T16:34:05.379Z,19.21
2022-09-22T16:36:35.116Z,19.18
2022-09-22T16:39:03.088Z,19.04
2022-09-22T16:41:32.891Z,19.09
2022-09-22T16:44:01.209Z,19.01
2022-09-22T16:46:30.327Z,19.02
2022-09-22T16:49:05.292Z,19.04
2022-09-22T16:51:36.277Z,18.86
2022-09-22T16:54:05.440Z,18.96
2022-09-22T16:56:35.453Z,18.91
2022-09-22T16:59:03.057Z,18.91
2022-09-22T17:01:32.578Z,18.88
2022-09-22T17:03:59.611Z,18.82
2022-09-22T17:06:27.573Z,18.83
2022-09-22T17:08:56.967Z,18.70
2022-09-22T17:11:30.278Z,18.67
2022-09-22T17:14:02.868Z,18.67
2022-09-22T17:16:32.538Z,18.57
2022-09-22T17:19:18.328Z,18.53
2022-09-22T17:21:47.708Z,18.46
2022-09-22T17:24:15.719Z,18.54
2022-09-22T17:26:48.693Z,18.41
2022-09-22T17:29:24.724Z,18.35
2022-09-22T17:31:57.719Z,18.34
2022-09-22T17:34:26.091Z,18.13
2022-09-22T17:36:55.261Z,18.13
2022-09-22T17:39:24.124Z,18.03
2022-09-22T17:41:51.111Z,18.03
2022-09-22T17:44:22.740Z,17.98
2022-09-22T17:47:10.167Z,17.90
2022-09-22T17:49:56.920Z,17.82
2022-09-22T17:52:29.690Z,17.75
2022-09-22T17:55:11.040Z,17.78
2022-09-22T17:57:40.981Z,17.79
2022-09-22T18:00:22.491Z,17.71
2022-09-22T18:02:52.516Z,17.56
2022-09-22T18:05:25.412Z,17.60
2022-09-22T18:07:58.256Z,17.59
2022-09-22T18:10:33.912Z,17.48
2022-09-22T18:13:02.158Z,17.50
2022-09-22T18:15:29.403Z,17.34
2022-09-22T18:17:57.957Z,17.37
2022-09-22T18:20:27.337Z,17.34
2022-09-22T18:22:56.011Z,17.24
2022-09-22T18:25:25.404Z,17.33
2022-09-22T18:27:53.163Z,17.29
2022-09-22T18:30:20.003Z,17.14
2022-09-22T18:32:48.851Z,17.14
2022-09-22T18:35:16.405Z,17.22
2022-09-22T18:37:43.733Z,17.08
2022-09-22T18:40:12.316Z,17.06
2022-09-22T18:42:41.315Z,17.06
2022-09-22T18:45:09.991Z,16.89
2022-09-22T18:47:43.487Z,16.80
2022-09-22T18:50:11.922Z,16.81
2022-09-22T18:52:42.538Z,16.88
2022-09-22T18:55:10.187Z,16.85
2022-09-22T18:57:37.629Z,16.83
2022-09-22T19:00:05.008Z,16.77
2022-09-22T19:02:31.910Z,16.70
2022-09-22T19:04:58.854Z,16.63
2022-09-22T19:07:42.866Z,16.63
2022-09-22T19:10:14.693Z,16.53
2022-09-22T19:12:42.453Z,16.48
2022-09-22T19:15:16.461Z,16.49
2022-09-22T19:17:45.571Z,16.36
2022-09-22T19:20:24.051Z,16.37
2022-09-22T19:22:52.213Z,16.31
2022-09-22T19:25:21.251Z,16.37
2022-09-22T19:27:48.282Z,16.28
2022-09-22T19:30:17.657Z,16.16
2022-09-22T19:32:46.405Z,16.11
2022-09-22T19:35:13.878Z,16.12
2022-09-22T19:37:41.287Z,16.10
2022-09-22T19:40:12.896Z,16.07
2022-09-22T19:42:40.556Z,15.96
2022-09-22T19:45:08.620Z,15.98
2022-09-22T19:47:35.601Z,15.84
2022-09-22T19:50:03.131Z,15.78
2022-09-22T19:52:29.934Z,15.74
2022-09-22T19:54:56.797Z,15.68
2022-09-22T19:57:24.067Z,15.56
2022-09-22T19:59:50.919Z,15.49
2022-09-22T20:02:17.841Z,15.47
2022-09-22T20:04:45.617Z,15.49
2022-09-22T20:07:12.496Z,15.45
2022-09-22T20:09:39.949Z,15.44
2022-09-22T20:12:06.993Z,15.38
2022-09-22T20:14:34.393Z,15.24
2022-09-22T20:17:05.432Z,15.27
2022-09-22T20:19:35.604Z,15.18
2022-09-22T20:22:29.409Z,15.24
2022-09-22T20:24:59.377Z,15.11
2022-09-22T20:27:32.654Z,15.12
2022-09-22T20:30:00.725Z,15.04
2022-09-22T20:32:34.508Z,15.00
2022-09-22T20:35:01.627Z,14.98
2022-09-22T20:37:29.881Z,14.95
2022-09-22T20:39:57.419Z,14.83
2022-09-22T20:42:24.308Z,14.86
2022-09-22T20:44:51.202Z,14.80
2022-09-22T20:47:21.818Z,14.74
2022-09-22T20:49:51.764Z,14.69
2022-09-22T20:53:54.387Z,14.75
2022-09-22T20:56:21.423Z,14.71
2022-09-22T20:58:48.256Z,14.71
2022-09-22T21:01:17.087Z,14.66
2022-09-22T21:03:44.526Z,14.69
2022-09-22T21:06:12.998Z,14.72
2022-09-22T21:09:00.710Z,14.67
2022-09-22T21:11:29.035Z,14.66
2022-09-22T21:14:01.829Z,14.65
2022-09-22T21:16:29.955Z,14.56
2022-09-22T21:18:57.228Z,14.62
2022-09-22T21:21:24.240Z,14.55
2022-09-22T21:23:51.238Z,14.42
2022-09-22T21:26:20.659Z,14.45
2022-09-22T21:28:50.765Z,14.43
2022-09-22T21:31:18.586Z,14.44
2022-09-22T21:33:46.028Z,14.39
2022-09-22T21:36:16.502Z,14.38
2022-09-22T21:38:46.343Z,14.33
2022-09-22T21:41:17.563Z,14.29
2022-09-22T21:43:44.606Z,14.23
2022-09-22T21:46:20.869Z,14.26
2022-09-22T21:48:48.193Z,14.21
2022-09-22T21:51:21.490Z,14.19
2022-09-22T21:53:52.820Z,14.20
2022-09-22T21:56:22.242Z,14.20
2022-09-22T21:58:52.503Z,14.20
2022-09-22T22:01:22.692Z,14.15
2022-09-22T22:03:53.222Z,14.05
2022-09-22T22:06:32.516Z,14.02
2022-09-22T22:09:06.460Z,13.86
2022-09-22T22:11:46.050Z,13.81
2022-09-22T22:14:13.327Z,13.73
2022-09-22T22:16:44.182Z,13.71
2022-09-22T22:19:14.552Z,13.60
2022-09-22T22:21:42.811Z,13.56
2022-09-22T22:24:18.063Z,13.51
2022-09-22T22:26:51.672Z,13.49
2022-09-22T22:29:19.532Z,13.49
2022-09-22T22:31:48.855Z,13.51
2022-09-22T22:34:18.962Z,13.33
2022-09-22T22:36:47.354Z,13.27
2022-09-22T22:39:14.707Z,13.14
2022-09-22T22:41:41.811Z,13.13
2022-09-22T22:44:08.676Z,13.05
2022-09-22T22:46:36.231Z,13.07
2022-09-22T22:49:03.436Z,13.10
2022-09-22T22:51:30.500Z,13.06
2022-09-22T22:53:57.303Z,12.99
2022-09-22T22:56:27.182Z,12.92
2022-09-22T22:58:55.762Z,12.79
2022-09-22T23:01:28.895Z,12.84
2022-09-22T23:03:59.426Z,12.72
2022-09-22T23:06:39.507Z,12.74
2022-09-22T23:09:09.935Z,12.64
2022-09-22T23:11:39.874Z,12.69
2022-09-22T23:14:11.153Z,12.44
2022-09-22T23:16:41.433Z,12.47
2022-09-22T23:19:16.007Z,12.35
2022-09-22T23:21:43.299Z,12.35
2022-09-22T23:24:14.378Z,12.28
2022-09-22T23:26:41.476Z,12.35
2022-09-22T23:29:08.375Z,12.28
2022-09-22T23:31:35.205Z,12.19
2022-09-22T23:34:02.064Z,12.22
2022-09-22T23:36:29.922Z,12.28
2022-09-22T23:39:03.737Z,12.19
2022-09-22T23:41:33.576Z,12.20
2022-09-22T23:44:00.644Z,12.23
2022-09-22T23:46:27.853Z,12.21
2022-09-22T23:48:55.495Z,12.19
2022-09-22T23:51:23.263Z,12.08
2022-09-22T23:53:50.050Z,12.16
2022-09-22T23:56:17.164Z,12.23
2022-09-22T23:58:45.291Z,12.28
